Time;durP1;ratioP1;P1;durP2;ratioP2;P2;SDS_P1;SDS_P2;PMS_P1;PMS_P2;Temp;Humidity;BMP_temperature;BMP_pressure;BME280_temperature;BME280_humidity;BME280_pressure;Samples;Min_cycle;Max_cycle;Signal;HPM_P1;HPM_P2
2023/11/27 00:00:24;;;;;;;5.40;4.90;;;5.50;1.00;;;;;;5012953;28;20179;-68
2023/11/27 00:02:50;;;;;;;6.47;5.57;;;5.50;1.00;;;;;;5013023;28;20186;-68
2023/11/27 00:05:16;;;;;;;5.90;5.10;;;5.50;1.00;;;;;;5012923;28;20254;-68
2023/11/27 00:07:42;;;;;;;8.07;5.30;;;5.50;1.00;;;;;;5012826;28;20196;-68
2023/11/27 00:10:08;;;;;;;6.53;5.47;;;5.50;1.00;;;;;;5013089;28;20223;-68
2023/11/27 00:12:33;;;;;;;8.67;4.90;;;5.50;1.00;;;;;;5011919;28;20184;-68
2023/11/27 00:14:59;;;;;;;6.47;5.03;;;5.50;1.00;;;;;;5013577;28;20192;-69
2023/11/27 00:17:24;;;;;;;5.53;5.03;;;5.50;1.00;;;;;;5013479;28;20194;-68
2023/11/27 00:19:50;;;;;;;5.37;4.83;;;5.50;1.00;;;;;;5012223;28;20321;-69
2023/11/27 00:22:15;;;;;;;5.90;5.33;;;5.50;1.00;;;;;;5012805;28;20195;-68
2023/11/27 00:24:41;;;;;;;6.57;4.70;;;5.60;1.00;;;;;;5013112;28;20188;-69
2023/11/27 00:27:07;;;;;;;4.53;4.13;;;5.60;1.00;;;;;;5013572;28;20173;-68
2023/11/27 00:29:32;;;;;;;4.90;4.50;;;5.60;1.00;;;;;;5012311;28;20254;-68
2023/11/27 00:31:58;;;;;;;5.57;5.10;;;5.60;1.00;;;;;;5012627;28;20588;-68
2023/11/27 00:34:23;;;;;;;7.00;4.80;;;5.60;1.00;;;;;;5012124;28;20291;-68
2023/11/27 00:36:50;;;;;;;5.23;4.73;;;5.60;1.00;;;;;;5012123;28;20188;-68
2023/11/27 00:39:15;;;;;;;5.17;4.67;;;5.60;1.00;;;;;;5012334;28;20538;-68
2023/11/27 00:41:41;;;;;;;7.40;4.53;;;5.50;1.00;;;;;;5012266;28;20255;-68
2023/11/27 00:44:07;;;;;;;5.93;5.33;;;5.60;1.00;;;;;;5012368;28;20172;-69
2023/11/27 00:46:33;;;;;;;5.87;5.00;;;5.60;1.00;;;;;;5012117;28;20199;-68
2023/11/27 00:48:58;;;;;;;5.33;4.83;;;5.60;1.00;;;;;;5012030;28;20188;-68
2023/11/27 00:51:24;;;;;;;8.17;5.60;;;5.60;1.00;;;;;;5012039;28;20176;-68
2023/11/27 00:53:49;;;;;;;11.53;5.23;;;5.60;1.00;;;;;;5012016;28;20667;-68
2023/11/27 00:56:15;;;;;;;6.17;5.67;;;5.60;1.00;;;;;;5012169;28;20196;-68
2023/11/27 00:58:41;;;;;;;5.60;5.10;;;5.60;1.00;;;;;;5012368;28;20168;-68
2023/11/27 01:01:06;;;;;;;7.20;5.00;;;5.60;1.00;;;;;;5011873;28;20532;-68
2023/11/27 01:03:32;;;;;;;6.67;5.17;;;5.60;1.00;;;;;;5011546;28;20191;-68
2023/11/27 01:05:58;;;;;;;8.33;5.03;;;5.60;1.00;;;;;;5012132;28;20252;-68
2023/11/27 01:08:24;;;;;;;5.80;4.73;;;5.60;1.00;;;;;;5011874;28;20180;-69
2023/11/27 01:10:50;;;;;;;6.73;5.00;;;5.60;1.00;;;;;;5011804;28;20203;-68
2023/11/27 01:13:16;;;;;;;5.40;4.73;;;5.60;1.00;;;;;;5011369;28;20200;-68
2023/11/27 01:15:42;;;;;;;11.23;5.87;;;5.60;34.00;;;;;;5011720;28;20215;-68
2023/11/27 01:18:07;;;;;;;7.90;5.87;;;5.60;99.90;;;;;;5012026;28;20215;-68
2023/11/27 01:20:33;;;;;;;7.07;6.03;;;5.50;99.90;;;;;;5011768;28;20183;-68
2023/11/27 01:22:59;;;;;;;7.43;5.57;;;5.50;99.90;;;;;;5011441;28;20691;-68
2023/11/27 01:25:25;;;;;;;6.20;5.60;;;5.50;99.90;;;;;;5010470;28;20192;-68
2023/11/27 01:27:51;;;;;;;8.73;5.47;;;5.50;1.00;;;;;;5011558;28;20187;-68
2023/11/27 01:30:18;;;;;;;6.30;5.70;;;5.40;1.00;;;;;;5011632;28;20203;-68
2023/11/27 01:32:44;;;;;;;6.10;5.50;;;5.40;1.00;;;;;;5011492;28;20203;-69
2023/11/27 01:35:10;;;;;;;8.00;5.70;;;5.40;11.20;;;;;;5011291;28;20184;-68
2023/11/27 01:37:35;;;;;;;7.17;5.70;;;5.40;99.90;;;;;;5012039;28;20227;-69
2023/11/27 01:40:01;;;;;;;8.10;6.23;;;5.40;1.00;;;;;;5011733;28;20180;-68
2023/11/27 01:42:27;;;;;;;6.13;5.63;;;5.30;1.00;;;;;;5011737;28;20260;-69
2023/11/27 01:44:52;;;;;;;7.07;5.93;;;5.30;99.90;;;;;;5011261;28;20616;-69
2023/11/27 01:47:19;;;;;;;10.70;6.40;;;5.30;1.00;;;;;;5011630;28;20666;-69
2023/11/27 01:49:46;;;;;;;8.77;5.70;;;5.30;1.00;;;;;;5011591;28;20183;-68
2023/11/27 01:52:13;;;;;;;11.13;5.80;;;5.20;1.00;;;;;;5011763;28;20176;-69
2023/11/27 01:54:40;;;;;;;7.10;6.40;;;5.30;99.90;;;;;;5011443;28;20207;-69
2023/11/27 01:57:07;;;;;;;6.63;6.03;;;5.20;99.90;;;;;;5011368;28;20181;-69
2023/11/27 01:59:33;;;;;;;6.90;6.30;;;5.20;99.90;;;;;;5011124;28;20172;-68
2023/11/27 02:02:00;;;;;;;8.00;6.70;;;5.20;1.00;;;;;;5011407;28;20187;-69
2023/11/27 02:04:26;;;;;;;11.37;6.43;;;5.20;99.90;;;;;;5010355;28;20636;-68
2023/11/27 02:06:52;;;;;;;7.07;6.47;;;5.20;99.90;;;;;;5011095;28;20667;-69
2023/11/27 02:09:18;;;;;;;7.00;6.30;;;5.20;36.70;;;;;;5010881;28;20226;-68
2023/11/27 02:11:48;;;;;;;9.23;6.57;;;5.10;99.90;;;;;;5011239;28;20176;-69
2023/11/27 02:14:15;;;;;;;10.13;6.37;;;5.10;99.90;;;;;;5011377;28;20219;-69
2023/11/27 02:16:43;;;;;;;9.50;6.30;;;5.10;99.90;;;;;;5010941;28;20211;-69
2023/11/27 02:19:09;;;;;;;11.07;6.70;;;5.10;99.90;;;;;;5010940;28;20176;-69
2023/11/27 02:21:35;;;;;;;8.07;6.63;;;5.10;99.90;;;;;;5011518;28;20242;-68
2023/11/27 02:24:00;;;;;;;8.00;7.10;;;5.20;99.90;;;;;;5011132;28;20284;-69
2023/11/27 02:26:26;;;;;;;7.87;6.60;;;5.20;99.90;;;;;;5010893;28;20200;-69
2023/11/27 02:28:51;;;;;;;8.03;7.30;;;5.20;99.90;;;;;;5010787;28;20602;-68
2023/11/27 02:31:17;;;;;;;7.93;6.60;;;5.20;99.90;;;;;;5010955;28;20180;-69
2023/11/27 02:33:42;;;;;;;9.50;7.57;;;5.20;99.90;;;;;;5010903;28;20691;-68
2023/11/27 02:36:08;;;;;;;11.43;7.80;;;5.20;99.90;;;;;;5013194;28;20212;-68
2023/11/27 02:38:36;;;;;;;9.13;7.17;;;5.20;99.90;;;;;;5014362;28;20177;-69
2023/11/27 02:41:02;;;;;;;8.93;7.33;;;5.10;1.00;;;;;;5014292;28;20172;-69
2023/11/27 02:43:28;;;;;;;8.23;7.53;;;5.10;1.00;;;;;;5014526;28;20259;-68
2023/11/27 02:45:55;;;;;;;8.40;7.60;;;5.10;1.00;;;;;;5014329;28;20604;-68
2023/11/27 02:48:21;;;;;;;8.10;7.30;;;5.10;91.50;;;;;;5014535;28;20181;-68
2023/11/27 02:50:47;;;;;;;10.47;8.03;;;5.10;99.90;;;;;;5014254;28;20194;-68
2023/11/27 02:53:13;;;;;;;9.20;7.30;;;5.10;1.00;;;;;;5014951;28;20204;-68
2023/11/27 02:55:40;;;;;;;10.87;8.03;;;5.10;1.00;;;;;;5014501;28;20275;-69
2023/11/27 02:58:08;;;;;;;8.33;7.53;;;5.10;99.90;;;;;;5014570;28;20752;-68
2023/11/27 03:00:35;;;;;;;9.47;8.30;;;5.10;99.90;;;;;;5014310;28;20176;-68
2023/11/27 03:03:01;;;;;;;10.57;8.00;;;5.10;99.90;;;;;;5014086;28;20186;-69
2023/11/27 03:05:26;;;;;;;16.50;8.17;;;5.10;99.90;;;;;;5014823;28;20204;-68
2023/11/27 03:07:52;;;;;;;9.63;8.20;;;5.10;99.90;;;;;;5014140;28;20283;-68
2023/11/27 03:10:18;;;;;;;11.63;7.53;;;5.10;1.00;;;;;;5013824;28;20267;-68
2023/11/27 03:12:44;;;;;;;8.90;7.80;;;5.10;1.00;;;;;;5013721;28;20226;-68
2023/11/27 03:15:09;;;;;;;9.23;7.83;;;5.10;99.90;;;;;;5014019;28;20196;-68
2023/11/27 03:17:37;;;;;;;8.33;7.50;;;5.10;99.90;;;;;;5013892;28;20254;-68
2023/11/27 03:20:04;;;;;;;9.23;8.20;;;5.10;99.90;;;;;;5013816;28;20183;-68
2023/11/27 03:22:30;;;;;;;8.17;7.37;;;5.10;99.90;;;;;;5014301;28;20172;-68
2023/11/27 03:24:56;;;;;;;14.07;7.83;;;5.10;99.90;;;;;;5013337;28;20216;-68
2023/11/27 03:27:22;;;;;;;8.13;6.97;;;5.00;1.00;;;;;;5014030;28;20552;-68
2023/11/27 03:29:48;;;;;;;8.70;7.80;;;5.00;1.00;;;;;;5013203;28;20666;-69
2023/11/27 03:32:13;;;;;;;9.17;8.27;;;4.90;99.90;;;;;;5013579;28;20176;-68
2023/11/27 03:34:39;;;;;;;8.47;7.63;;;4.90;99.90;;;;;;5013413;28;20215;-68
2023/11/27 03:37:05;;;;;;;9.37;7.73;;;4.90;1.00;;;;;;5013551;28;20195;-68
2023/11/27 03:39:30;;;;;;;9.43;7.87;;;4.90;1.00;;;;;;5013449;28;20168;-68
2023/11/27 03:41:56;;;;;;;10.63;8.40;;;4.90;1.00;;;;;;5013486;28;20588;-68
2023/11/27 03:44:21;;;;;;;14.33;8.20;;;4.90;1.00;;;;;;5013492;28;20322;-69
2023/11/27 03:46:47;;;;;;;11.27;7.90;;;4.80;1.00;;;;;;5012665;28;20226;-69
2023/11/27 03:49:12;;;;;;;11.70;8.23;;;4.80;1.00;;;;;;5013124;28;20184;-69
2023/11/27 03:51:38;;;;;;;14.07;9.50;;;4.80;1.00;;;;;;5013565;28;20173;-69
2023/11/27 03:54:05;;;;;;;12.37;9.20;;;4.80;1.00;;;;;;5013392;28;20290;-74
2023/11/27 03:56:31;;;;;;;12.53;8.67;;;4.70;99.90;;;;;;5013185;28;20217;-69
2023/11/27 03:58:56;;;;;;;10.00;8.90;;;4.80;1.00;;;;;;5012597;28;20219;-69
2023/11/27 04:01:22;;;;;;;11.63;9.60;;;4.80;1.00;;;;;;5013103;28;20172;-69
2023/11/27 04:03:48;;;;;;;12.50;9.53;;;4.80;1.00;;;;;;5012896;28;20636;-69
2023/11/27 04:06:30;;;;;;;10.47;8.70;;;4.80;1.00;;;;;;5013137;28;20275;-69
2023/11/27 04:08:56;;;;;;;12.10;8.93;;;4.70;1.00;;;;;;5012913;28;20262;-69
2023/11/27 04:11:21;;;;;;;13.37;9.50;;;4.80;1.00;;;;;;5012960;28;20699;-69
2023/11/27 04:13:47;;;;;;;9.43;8.37;;;4.70;1.00;;;;;;5012647;28;20220;-69
2023/11/27 04:16:13;;;;;;;11.10;9.37;;;4.70;99.90;;;;;;5012964;28;20597;-69
2023/11/27 04:18:38;;;;;;;11.00;8.57;;;4.80;99.90;;;;;;5012667;28;20648;-69
2023/11/27 04:21:04;;;;;;;13.20;9.00;;;4.80;99.90;;;;;;5012541;28;20184;-69
2023/11/27 04:23:30;;;;;;;14.37;8.90;;;4.80;1.00;;;;;;5012856;28;20238;-69
2023/11/27 04:25:56;;;;;;;10.17;9.17;;;4.80;1.00;;;;;;5012795;28;20211;-69
2023/11/27 04:28:22;;;;;;;10.57;8.57;;;4.90;1.00;;;;;;5012794;28;20184;-69
2023/11/27 04:30:47;;;;;;;8.73;7.90;;;4.90;1.00;;;;;;5012208;28;20238;-69
2023/11/27 04:33:16;;;;;;;11.00;8.70;;;4.90;1.00;;;;;;5012414;28;20312;-69
2023/11/27 04:35:41;;;;;;;9.50;8.40;;;4.90;1.00;;;;;;5012563;28;20192;-69
2023/11/27 04:38:10;;;;;;;9.50;8.60;;;4.80;1.00;;;;;;5012393;28;20537;-69
2023/11/27 04:40:36;;;;;;;8.40;7.60;;;4.80;99.90;;;;;;5012074;28;20270;-69
2023/11/27 04:43:01;;;;;;;9.93;8.13;;;4.80;1.00;;;;;;5012251;28;20191;-69
2023/11/27 04:45:27;;;;;;;8.97;7.90;;;4.70;1.00;;;;;;5012602;28;20211;-69
2023/11/27 04:47:52;;;;;;;9.53;8.23;;;4.70;99.90;;;;;;5012271;28;20648;-69
2023/11/27 04:50:19;;;;;;;8.87;8.03;;;4.70;99.90;;;;;;5012009;28;20172;-69
2023/11/27 04:52:44;;;;;;;10.07;9.07;;;4.60;1.00;;;;;;5011895;28;20184;-69
2023/11/27 04:55:10;;;;;;;9.60;8.20;;;4.60;1.00;;;;;;5012177;28;20199;-69
2023/11/27 04:57:37;;;;;;;9.33;8.07;;;4.50;1.00;;;;;;5012152;28;20211;-69
2023/11/27 05:00:03;;;;;;;8.50;7.70;;;4.50;1.00;;;;;;5011807;28;20262;-69
2023/11/27 05:02:29;;;;;;;13.63;8.33;;;4.50;1.00;;;;;;5011810;28;20176;-68
2023/11/27 05:04:55;;;;;;;9.93;8.00;;;4.50;4.90;;;;;;5011752;28;20330;-68
2023/11/27 05:07:20;;;;;;;8.80;7.97;;;4.50;37.40;;;;;;5012139;28;20263;-68
2023/11/27 05:09:46;;;;;;;9.30;7.83;;;4.40;95.10;;;;;;5011888;28;20184;-68
2023/11/27 05:12:12;;;;;;;8.97;8.13;;;4.40;99.90;;;;;;5011799;28;20192;-68
2023/11/27 05:14:37;;;;;;;8.57;7.53;;;4.40;99.90;;;;;;5010528;28;20578;-68
2023/11/27 05:17:03;;;;;;;10.43;7.60;;;4.30;99.90;;;;;;5011593;28;20199;-68
2023/11/27 05:19:30;;;;;;;9.43;7.70;;;4.30;99.90;;;;;;5011168;28;20191;-68
2023/11/27 05:21:55;;;;;;;10.47;8.13;;;4.30;99.90;;;;;;5011763;28;20708;-69
2023/11/27 05:24:21;;;;;;;10.57;7.90;;;4.20;99.90;;;;;;5011813;28;20184;-68
2023/11/27 05:26:47;;;;;;;9.53;8.03;;;4.20;99.90;;;;;;5011518;28;20210;-68
2023/11/27 05:29:12;;;;;;;8.47;7.57;;;4.20;99.90;;;;;;5011472;28;20195;-68
2023/11/27 05:31:38;;;;;;;10.73;8.57;;;4.20;99.90;;;;;;5011951;28;20263;-68
2023/11/27 05:34:03;;;;;;;11.87;7.73;;;4.20;99.90;;;;;;5011407;28;20310;-69
2023/11/27 05:36:29;;;;;;;10.80;7.83;;;4.20;99.90;;;;;;5011898;28;20667;-68
2023/11/27 05:38:54;;;;;;;10.13;7.77;;;4.20;99.90;;;;;;5011373;28;20168;-69
2023/11/27 05:41:22;;;;;;;10.43;8.17;;;4.20;99.90;;;;;;5027115;28;20543;-68
2023/11/27 05:43:48;;;;;;;8.80;8.10;;;4.10;99.90;;;;;;5011901;28;20203;-68
2023/11/27 05:46:14;;;;;;;9.03;7.93;;;4.10;99.90;;;;;;5011587;28;20196;-69
2023/11/27 05:48:40;;;;;;;12.67;8.67;;;4.10;99.90;;;;;;5011458;28;20775;-68
2023/11/27 05:51:06;;;;;;;11.43;8.43;;;4.10;99.90;;;;;;5012091;28;20184;-68
2023/11/27 05:53:32;;;;;;;8.80;7.83;;;4.10;99.90;;;;;;5011497;28;20212;-70
2023/11/27 05:55:58;;;;;;;9.50;8.40;;;4.10;99.90;;;;;;5011269;28;20707;-68
2023/11/27 05:58:24;;;;;;;13.20;8.33;;;4.10;99.90;;;;;;5011246;28;20260;-68
2023/11/27 06:00:50;;;;;;;9.17;8.37;;;4.10;99.90;;;;;;5011072;28;20218;-68
2023/11/27 06:03:16;;;;;;;9.33;8.30;;;4.10;99.90;;;;;;5010988;28;20188;-68
2023/11/27 06:05:41;;;;;;;11.10;7.23;;;4.10;99.90;;;;;;5011175;28;20195;-68
2023/11/27 06:08:07;;;;;;;11.20;7.37;;;4.10;99.90;;;;;;5011100;28;20172;-68
2023/11/27 06:10:33;;;;;;;8.80;7.73;;;4.10;99.90;;;;;;5012762;28;20180;-69
2023/11/27 06:12:58;;;;;;;10.80;8.13;;;4.10;99.90;;;;;;5014731;28;20178;-70
2023/11/27 06:15:24;;;;;;;8.30;7.43;;;4.10;99.90;;;;;;5014763;28;20663;-68
2023/11/27 06:17:50;;;;;;;8.47;7.67;;;4.00;99.90;;;;;;5014772;28;20195;-69
2023/11/27 06:20:15;;;;;;;8.70;8.00;;;4.00;99.90;;;;;;5014608;28;20188;-69
2023/11/27 06:22:41;;;;;;;10.87;8.00;;;4.00;99.90;;;;;;5014909;28;20558;-70
2023/11/27 06:25:08;;;;;;;8.20;7.40;;;4.00;99.90;;;;;;5014964;28;20296;-69
2023/11/27 06:27:34;;;;;;;11.17;7.43;;;4.00;99.90;;;;;;5014926;28;20172;-69
2023/11/27 06:30:00;;;;;;;8.03;7.23;;;4.00;99.90;;;;;;5014099;28;20662;-70
2023/11/27 06:32:26;;;;;;;10.57;8.47;;;4.00;99.90;;;;;;5014783;28;20255;-70
2023/11/27 06:34:52;;;;;;;9.00;8.10;;;3.90;99.90;;;;;;5014436;28;20208;-70
2023/11/27 06:37:17;;;;;;;8.47;7.77;;;3.90;99.90;;;;;;5014843;28;20169;-71
2023/11/27 06:39:43;;;;;;;8.63;7.23;;;3.90;99.90;;;;;;5014458;28;20176;-70
2023/11/27 06:42:13;;;;;;;12.40;7.80;;;3.90;99.90;;;;;;5014405;28;20597;-69
2023/11/27 06:44:41;;;;;;;15.57;8.23;;;3.90;99.90;;;;;;5014203;28;20191;-70
2023/11/27 06:47:07;;;;;;;9.63;8.73;;;3.90;99.90;;;;;;5014253;28;20176;-69
2023/11/27 06:49:34;;;;;;;9.67;8.60;;;4.00;99.90;;;;;;5014156;28;20180;-70
2023/11/27 06:52:03;;;;;;;10.37;8.37;;;4.00;99.90;;;;;;5014153;28;20554;-71
2023/11/27 06:54:28;;;;;;;9.03;8.13;;;4.00;99.90;;;;;;5014153;28;20232;-69
2023/11/27 06:56:54;;;;;;;9.83;7.97;;;4.00;99.90;;;;;;5013771;28;20710;-70
2023/11/27 06:59:20;;;;;;;8.90;8.13;;;4.00;99.90;;;;;;5013909;28;20176;-70
2023/11/27 07:01:45;;;;;;;10.20;8.30;;;4.00;99.90;;;;;;5014470;28;20208;-70
2023/11/27 07:04:11;;;;;;;10.43;8.10;;;4.00;99.90;;;;;;5014337;28;20184;-69
2023/11/27 07:06:38;;;;;;;9.53;8.40;;;4.00;99.90;;;;;;5012582;28;20234;-71
2023/11/27 07:09:07;;;;;;;8.70;7.83;;;4.00;99.90;;;;;;4994140;28;20264;-70
2023/11/27 07:11:33;;;;;;;9.73;8.73;;;4.00;99.90;;;;;;5000754;28;20188;-70
2023/11/27 07:14:03;;;;;;;10.23;8.40;;;4.00;99.90;;;;;;5014453;28;20208;-69
2023/11/27 07:16:30;;;;;;;9.27;8.47;;;4.00;99.90;;;;;;5014008;28;20283;-70
2023/11/27 07:18:57;;;;;;;8.60;7.87;;;3.90;99.90;;;;;;5013677;28;20196;-68
2023/11/27 07:21:25;;;;;;;9.20;7.97;;;3.90;99.90;;;;;;5013551;28;20620;-68
2023/11/27 07:23:53;;;;;;;9.80;8.83;;;4.00;99.90;;;;;;5013622;28;20183;-70
2023/11/27 07:26:24;;;;;;;9.83;8.93;;;4.00;99.90;;;;;;5013348;28;20258;-68
2023/11/27 07:28:50;;;;;;;8.93;8.03;;;4.00;99.90;;;;;;5013643;28;20180;-69
2023/11/27 07:31:18;;;;;;;9.67;8.63;;;3.90;99.90;;;;;;5013213;28;20184;-69
2023/11/27 07:33:44;;;;;;;12.53;8.97;;;3.90;99.90;;;;;;5012215;28;20204;-69
2023/11/27 07:36:10;;;;;;;12.13;8.07;;;3.90;99.90;;;;;;5012399;28;20268;-69
2023/11/27 07:38:36;;;;;;;10.50;9.30;;;3.90;99.90;;;;;;5012566;28;20173;-70
2023/11/27 07:41:05;;;;;;;9.63;8.80;;;3.90;99.90;;;;;;5012780;28;20196;-70
2023/11/27 07:43:34;;;;;;;10.00;9.10;;;3.80;99.90;;;;;;5012996;28;20176;-71
2023/11/27 07:46:01;;;;;;;10.00;9.10;;;3.90;99.90;;;;;;5013252;28;20267;-69
2023/11/27 07:48:26;;;;;;;11.73;8.57;;;3.90;99.90;;;;;;5012992;28;20188;-69
2023/11/27 07:50:52;;;;;;;10.53;9.53;;;3.90;99.90;;;;;;5012788;28;20659;-69
2023/11/27 07:53:24;;;;;;;10.70;9.73;;;3.80;99.90;;;;;;5012706;28;20274;-71
2023/11/27 07:55:49;;;;;;;9.77;8.93;;;3.90;99.90;;;;;;5012905;28;20433;-71
2023/11/27 07:58:16;;;;;;;10.00;8.70;;;3.90;99.90;;;;;;5012944;28;20659;-70
2023/11/27 08:00:42;;;;;;;11.57;8.60;;;3.90;99.90;;;;;;5013108;28;20259;-69
2023/11/27 08:03:08;;;;;;;10.20;8.83;;;3.80;99.90;;;;;;5013130;28;20295;-71
2023/11/27 08:05:35;;;;;;;9.73;8.47;;;3.80;99.90;;;;;;5013002;28;20287;-69
2023/11/27 08:08:00;;;;;;;9.00;8.20;;;3.80;99.90;;;;;;5012451;28;20594;-68
2023/11/27 08:10:28;;;;;;;9.27;8.37;;;3.80;99.90;;;;;;5012333;28;20259;-69
2023/11/27 08:12:54;;;;;;;8.70;7.90;;;3.80;99.90;;;;;;5012474;28;20176;-71
2023/11/27 08:15:19;;;;;;;9.57;8.27;;;3.80;99.90;;;;;;5012388;28;20254;-70
2023/11/27 08:17:45;;;;;;;7.90;7.30;;;3.80;99.90;;;;;;5012566;28;20596;-69
2023/11/27 08:20:14;;;;;;;8.70;8.00;;;3.80;99.90;;;;;;5012051;28;20184;-69
2023/11/27 08:22:43;;;;;;;8.77;7.97;;;3.80;99.90;;;;;;5012410;28;20238;-69
2023/11/27 08:25:16;;;;;;;8.23;7.20;;;3.80;99.90;;;;;;5012253;28;20235;-69
2023/11/27 08:27:46;;;;;;;8.33;7.60;;;3.80;99.90;;;;;;5012373;28;20609;-70
2023/11/27 08:30:12;;;;;;;8.57;7.70;;;3.80;99.90;;;;;;5012401;28;20378;-69
2023/11/27 08:32:39;;;;;;;8.07;7.37;;;3.80;99.90;;;;;;5011946;28;20250;-69
2023/11/27 08:35:07;;;;;;;8.80;8.00;;;3.80;99.90;;;;;;5011525;28;20216;-69
2023/11/27 08:37:36;;;;;;;8.00;7.40;;;3.80;99.90;;;;;;5012644;28;20255;-69
2023/11/27 08:40:06;;;;;;;8.43;7.83;;;3.80;99.90;;;;;;5012369;28;20173;-69
2023/11/27 08:42:34;;;;;;;9.17;8.30;;;3.70;99.90;;;;;;5012396;28;20183;-69
2023/11/27 08:45:00;;;;;;;10.20;8.00;;;3.80;99.90;;;;;;5011955;28;20188;-69
2023/11/27 08:47:26;;;;;;;9.03;8.23;;;3.80;99.90;;;;;;5011957;28;20219;-69
2023/11/27 08:49:52;;;;;;;7.80;7.10;;;3.80;99.90;;;;;;5009998;28;20199;-70
2023/11/27 08:52:17;;;;;;;10.13;7.43;;;3.80;99.90;;;;;;5012282;28;20191;-70
2023/11/27 08:54:44;;;;;;;7.70;7.13;;;3.80;99.90;;;;;;5012266;28;20204;-69
2023/11/27 08:57:10;;;;;;;8.00;7.33;;;3.80;99.90;;;;;;5011741;28;20644;-69
2023/11/27 08:59:36;;;;;;;8.50;7.80;;;3.80;99.90;;;;;;5011325;28;20169;-71
2023/11/27 09:02:02;;;;;;;8.10;7.30;;;3.80;99.90;;;;;;5011293;28;20546;-70
2023/11/27 09:04:28;;;;;;;8.00;7.10;;;3.90;99.90;;;;;;5011744;28;20181;-71
2023/11/27 09:06:53;;;;;;;7.40;6.70;;;3.90;99.90;;;;;;5011488;28;20203;-71
2023/11/27 09:09:19;;;;;;;7.10;6.60;;;3.90;99.90;;;;;;5011373;28;20275;-70
2023/11/27 09:11:46;;;;;;;7.53;7.03;;;3.90;99.90;;;;;;5010856;28;20599;-70
2023/11/27 09:14:11;;;;;;;8.00;7.23;;;3.90;99.90;;;;;;5006943;28;20200;-70
2023/11/27 09:16:37;;;;;;;10.03;7.07;;;3.90;99.90;;;;;;4990570;28;20243;-70
2023/11/27 09:19:03;;;;;;;7.00;6.33;;;3.90;99.90;;;;;;5002103;28;20219;-70
2023/11/27 09:21:29;;;;;;;7.67;7.10;;;4.00;99.90;;;;;;5011407;28;20172;-71
2023/11/27 09:23:54;;;;;;;7.33;6.83;;;4.00;99.90;;;;;;5011326;28;20226;-71
2023/11/27 09:26:20;;;;;;;7.57;6.87;;;4.00;99.90;;;;;;5011164;28;20267;-70
2023/11/27 09:28:47;;;;;;;7.53;6.97;;;4.00;99.90;;;;;;5010989;28;20176;-71
2023/11/27 09:31:15;;;;;;;7.40;6.50;;;4.00;99.90;;;;;;5010696;28;20250;-70
2023/11/27 09:33:41;;;;;;;6.50;6.00;;;4.10;99.90;;;;;;5011555;28;20616;-71
2023/11/27 09:36:13;;;;;;;7.13;6.60;;;4.10;99.90;;;;;;5011091;28;20200;-71
2023/11/27 09:38:40;;;;;;;8.13;6.27;;;4.10;99.90;;;;;;5013282;28;20176;-71
2023/11/27 09:41:07;;;;;;;7.87;7.23;;;4.10;99.90;;;;;;5011029;28;20172;-72
2023/11/27 09:43:33;;;;;;;6.53;6.10;;;4.10;99.90;;;;;;5011124;28;20214;-71
2023/11/27 09:46:01;;;;;;;7.53;6.93;;;4.10;99.90;;;;;;5014184;28;20200;-71
2023/11/27 09:48:27;;;;;;;7.00;6.47;;;4.10;99.90;;;;;;5015618;28;20654;-71
2023/11/27 09:50:57;;;;;;;7.03;6.53;;;4.10;99.90;;;;;;5015253;28;20180;-71
2023/11/27 09:53:27;;;;;;;6.83;6.33;;;4.10;99.90;;;;;;5015001;28;20298;-71
2023/11/27 09:55:56;;;;;;;6.90;6.40;;;4.10;99.90;;;;;;5001510;28;20192;-71
2023/11/27 09:58:23;;;;;;;6.13;5.73;;;4.10;99.90;;;;;;5004609;28;20191;-71
2023/11/27 10:00:49;;;;;;;6.77;6.27;;;4.10;99.90;;;;;;4995847;28;20200;-71
2023/11/27 10:03:15;;;;;;;6.70;6.20;;;4.10;99.90;;;;;;4995850;28;20184;-72
2023/11/27 10:05:43;;;;;;;6.53;6.13;;;4.10;99.90;;;;;;4995964;28;20204;-71
2023/11/27 10:08:11;;;;;;;6.63;6.13;;;4.10;99.90;;;;;;4996019;28;20177;-72
2023/11/27 10:10:37;;;;;;;8.27;6.53;;;4.10;99.90;;;;;;4995877;28;20183;-71
2023/11/27 10:13:06;;;;;;;6.77;6.20;;;4.20;99.90;;;;;;4995768;28;20176;-71
2023/11/27 10:15:33;;;;;;;6.53;6.03;;;4.20;99.90;;;;;;4995568;28;20193;-71
2023/11/27 10:18:00;;;;;;;6.67;6.07;;;4.20;99.90;;;;;;4995322;28;20185;-71
2023/11/27 10:20:28;;;;;;;6.37;5.87;;;4.20;99.90;;;;;;5011834;28;20181;-71
2023/11/27 10:22:58;;;;;;;7.40;6.70;;;4.20;99.90;;;;;;5014992;28;20168;-71
2023/11/27 10:25:24;;;;;;;7.57;6.97;;;4.20;99.90;;;;;;5014701;28;20207;-71
2023/11/27 10:27:57;;;;;;;7.07;6.57;;;4.20;99.90;;;;;;5015240;28;20176;-72
2023/11/27 10:30:25;;;;;;;6.90;6.40;;;4.20;99.90;;;;;;5014237;28;20703;-72
2023/11/27 10:32:52;;;;;;;7.03;6.47;;;4.20;99.90;;;;;;5014968;28;20211;-71
2023/11/27 10:35:20;;;;;;;6.27;5.77;;;4.20;99.90;;;;;;5014392;28;20275;-72
2023/11/27 10:37:49;;;;;;;5.73;5.43;;;4.20;99.90;;;;;;5014631;28;20676;-72
2023/11/27 10:40:16;;;;;;;7.43;6.73;;;4.20;99.90;;;;;;5013982;28;20164;-71
2023/11/27 10:42:49;;;;;;;7.67;7.00;;;4.20;99.90;;;;;;5014372;28;20230;-71
2023/11/27 10:45:21;;;;;;;6.37;5.87;;;4.20;99.90;;;;;;5014826;28;20663;-71
2023/11/27 10:47:50;;;;;;;7.27;6.67;;;4.30;99.90;;;;;;5014381;28;20168;-71
2023/11/27 10:50:17;;;;;;;6.20;5.70;;;4.30;99.90;;;;;;5014073;28;20175;-71
2023/11/27 10:52:47;;;;;;;6.63;6.17;;;4.30;99.90;;;;;;5014387;28;20188;-71
2023/11/27 10:55:17;;;;;;;5.93;5.27;;;4.30;99.90;;;;;;5013802;28;20211;-71
2023/11/27 10:57:47;;;;;;;5.83;5.43;;;4.30;99.90;;;;;;5014388;28;20187;-72
2023/11/27 11:00:18;;;;;;;5.67;5.30;;;4.30;99.90;;;;;;5012545;28;20176;-71
2023/11/27 11:02:50;;;;;;;6.10;5.67;;;4.30;99.90;;;;;;5012190;28;20181;-72
2023/11/27 11:05:29;;;;;;;6.43;5.57;;;4.30;99.90;;;;;;5013551;28;20659;-71
2023/11/27 11:07:58;;;;;;;5.93;5.40;;;4.30;99.90;;;;;;5014133;28;20190;-71
2023/11/27 11:10:26;;;;;;;5.97;5.53;;;4.30;99.90;;;;;;5013420;28;20176;-71
2023/11/27 11:12:57;;;;;;;5.03;4.77;;;4.20;99.90;;;;;;5013709;28;20172;-72
2023/11/27 11:15:34;;;;;;;5.30;4.90;;;4.30;99.90;;;;;;5013179;28;20203;-71
2023/11/27 11:18:11;;;;;;;5.10;4.80;;;4.30;99.90;;;;;;5014088;28;20184;-71
2023/11/27 11:21:17;;;;;;;5.87;5.27;;;4.30;99.90;;;;;;5013507;28;20244;-71
2023/11/27 11:24:08;;;;;;;4.97;4.77;;;4.30;99.90;;;;;;5013543;28;20539;-71
2023/11/27 11:26:46;;;;;;;5.83;5.37;;;4.30;99.90;;;;;;5013958;28;20231;-71
2023/11/27 11:29:18;;;;;;;5.17;4.87;;;4.30;99.90;;;;;;5013247;28;20610;-71
2023/11/27 11:31:48;;;;;;;4.87;4.53;;;4.30;99.90;;;;;;5013570;28;20544;-71
2023/11/27 11:34:22;;;;;;;5.27;4.87;;;4.30;99.90;;;;;;5013168;28;20676;-72
2023/11/27 11:36:53;;;;;;;4.93;4.70;;;4.30;99.90;;;;;;5013332;28;20191;-72
2023/11/27 11:39:19;;;;;;;4.83;4.63;;;4.40;99.90;;;;;;5012545;28;20196;-71
2023/11/27 11:41:46;;;;;;;4.93;4.73;;;4.40;99.90;;;;;;5013250;28;20258;-73
2023/11/27 11:44:18;;;;;;;5.23;4.93;;;4.40;99.90;;;;;;5013220;28;20195;-72
2023/11/27 11:46:47;;;;;;;4.97;4.60;;;4.40;99.90;;;;;;5013481;28;20256;-72
2023/11/27 11:49:18;;;;;;;4.70;4.50;;;4.40;99.90;;;;;;5013028;28;20180;-72
2023/11/27 11:52:03;;;;;;;4.83;4.63;;;4.40;99.90;;;;;;5013253;28;20215;-72
2023/11/27 11:54:38;;;;;;;5.07;4.70;;;4.40;99.90;;;;;;5012769;28;20206;-73
2023/11/27 11:57:23;;;;;;;4.83;4.60;;;4.40;99.90;;;;;;5013038;28;20542;-72
2023/11/27 11:59:50;;;;;;;5.10;4.70;;;4.40;99.90;;;;;;5012509;28;20168;-72
2023/11/27 12:02:22;;;;;;;5.47;5.03;;;4.40;99.90;;;;;;5012799;28;20243;-72
2023/11/27 12:04:55;;;;;;;5.50;5.00;;;4.40;99.90;;;;;;5012895;28;20176;-72
2023/11/27 12:07:24;;;;;;;5.03;4.63;;;4.40;99.90;;;;;;5011811;28;20186;-74
2023/11/27 12:09:51;;;;;;;5.33;5.03;;;4.40;99.90;;;;;;5012654;28;20177;-72
2023/11/27 12:12:19;;;;;;;5.50;5.00;;;4.40;99.90;;;;;;5012268;28;20183;-72
2023/11/27 12:14:46;;;;;;;5.10;4.70;;;4.40;99.90;;;;;;5012485;28;20211;-72
2023/11/27 12:17:15;;;;;;;5.43;5.03;;;4.40;99.90;;;;;;5012256;28;20214;-73
2023/11/27 12:19:47;;;;;;;5.27;4.87;;;4.30;99.90;;;;;;5012299;28;20176;-73
2023/11/27 12:22:13;;;;;;;5.70;5.40;;;4.30;99.90;;;;;;5012830;28;20165;-73
2023/11/27 12:24:46;;;;;;;7.17;5.17;;;4.40;99.90;;;;;;5012448;28;20641;-72
2023/11/27 12:27:13;;;;;;;7.87;4.83;;;4.40;99.90;;;;;;5012087;28;20176;-72
2023/11/27 12:29:38;;;;;;;5.17;4.87;;;4.40;99.90;;;;;;5012310;28;20262;-72
2023/11/27 12:32:06;;;;;;;5.07;4.77;;;4.40;99.90;;;;;;5012405;28;20625;-73
2023/11/27 12:34:35;;;;;;;5.47;5.07;;;4.40;99.90;;;;;;5012645;28;20203;-73
2023/11/27 12:37:02;;;;;;;5.70;5.40;;;4.40;99.90;;;;;;5012969;28;20260;-72
2023/11/27 12:39:28;;;;;;;5.03;4.63;;;4.40;99.90;;;;;;5012612;28;20256;-72
2023/11/27 12:42:03;;;;;;;5.03;4.63;;;4.40;99.90;;;;;;5012944;28;20191;-72
2023/11/27 12:44:30;;;;;;;5.60;5.30;;;4.40;99.90;;;;;;5012223;28;20189;-72
2023/11/27 12:46:55;;;;;;;6.30;5.90;;;4.40;99.90;;;;;;5012398;28;20199;-71
2023/11/27 12:49:22;;;;;;;5.63;5.23;;;4.50;99.90;;;;;;5013154;28;20230;-72
2023/11/27 12:51:55;;;;;;;5.70;5.30;;;4.50;99.90;;;;;;5012605;28;20524;-71
2023/11/27 12:54:21;;;;;;;5.90;5.10;;;4.50;99.90;;;;;;5012325;28;20208;-71
2023/11/27 12:56:52;;;;;;;5.90;5.40;;;4.50;99.90;;;;;;5012222;28;20184;-72